Time;durP1;ratioP1;P1;durP2;ratioP2;P2;SDS_P1;SDS_P2;PMS_P1;PMS_P2;Temp;Humidity;BMP_temperature;BMP_pressure;BME280_temperature;BME280_humidity;BME280_pressure;Samples;Min_cycle;Max_cycle;Signal;HPM_P1;HPM_P2
2022/03/07 00:00:29;;;;;;;0.00;0.00;;;;;21.30;100251.00;;;;5089172;28;20043;-80
2022/03/07 00:03:02;;;;;;;0.00;0.00;;;;;21.30;100254.00;;;;5090052;28;20160;-80
2022/03/07 00:05:32;;;;;;;0.00;0.00;;;;;21.30;100249.00;;;;5107478;28;20050;-80
2022/03/07 00:08:02;;;;;;;0.00;0.00;;;;;21.20;100258.00;;;;5088377;28;20055;-80
2022/03/07 00:10:52;;;;;;;0.00;0.00;;;;;21.20;100265.00;;;;5106686;28;20051;-81
2022/03/07 00:13:37;;;;;;;0.00;0.00;;;;;21.20;100262.00;;;;5085759;28;20048;-81
2022/03/07 00:16:07;;;;;;;0.00;0.00;;;;;21.20;100286.00;;;;5088577;28;20051;-81
2022/03/07 00:18:37;;;;;;;0.00;0.00;;;;;21.20;100308.00;;;;5088615;28;20171;-80
2022/03/07 00:21:08;;;;;;;0.00;0.00;;;;;21.20;100294.00;;;;5088954;28;20051;-80
2022/03/07 00:23:37;;;;;;;0.00;0.00;;;;;21.20;100310.00;;;;5105427;28;20035;-81
2022/03/07 00:26:07;;;;;;;0.00;0.00;;;;;21.10;100286.00;;;;5105758;28;20554;-81
2022/03/07 00:28:37;;;;;;;0.00;0.00;;;;;21.10;100315.00;;;;5105089;28;20079;-80
2022/03/07 00:31:07;;;;;;;0.00;0.00;;;;;21.10;100301.00;;;;5105016;28;20394;-80
2022/03/07 00:33:37;;;;;;;0.00;0.00;;;;;21.00;100288.00;;;;5104541;28;20073;-81
2022/03/07 00:36:07;;;;;;;0.00;0.00;;;;;21.10;100297.00;;;;5104384;28;20048;-80
2022/03/07 00:38:36;;;;;;;0.00;0.00;;;;;21.10;100308.00;;;;5088112;28;20106;-80
2022/03/07 00:41:11;;;;;;;0.00;0.00;;;;;21.20;100292.00;;;;5104561;28;20147;-81
2022/03/07 00:43:41;;;;;;;0.00;0.00;;;;;21.10;100302.00;;;;5104585;28;20056;-81
2022/03/07 00:46:11;;;;;;;0.00;0.00;;;;;21.20;100314.00;;;;5105231;28;20513;-81
2022/03/07 00:48:40;;;;;;;0.00;0.00;;;;;21.20;100297.00;;;;5104036;28;20048;-80
2022/03/07 00:51:11;;;;;;;0.00;0.00;;;;;21.20;100291.00;;;;5104670;28;20565;-79
2022/03/07 00:53:42;;;;;;;0.00;0.00;;;;;21.10;100277.00;;;;5106419;28;20043;-80
2022/03/07 00:56:13;;;;;;;0.00;0.00;;;;;21.10;100290.00;;;;5106307;28;20132;-79
2022/03/07 00:58:43;;;;;;;0.00;0.00;;;;;21.10;100291.00;;;;5088063;28;20146;-80
2022/03/07 01:01:15;;;;;;;0.00;0.00;;;;;21.10;100298.00;;;;5103851;28;20425;-80
2022/03/07 01:03:45;;;;;;;0.00;0.00;;;;;21.10;100312.00;;;;5104481;28;20055;-80
2022/03/07 01:06:17;;;;;;;0.00;0.00;;;;;21.20;100299.00;;;;5104224;28;20047;-79
2022/03/07 01:08:47;;;;;;;0.00;0.00;;;;;21.10;100275.00;;;;5090893;28;20048;-80
2022/03/07 01:11:17;;;;;;;0.00;0.00;;;;;21.20;100261.00;;;;5092476;28;20086;-79
2022/03/07 01:13:47;;;;;;;0.00;0.00;;;;;21.20;100251.00;;;;5091465;28;20459;-79
2022/03/07 01:16:18;;;;;;;0.00;0.00;;;;;21.20;100288.00;;;;5092675;28;20055;-80
2022/03/07 01:18:49;;;;;;;0.00;0.00;;;;;21.20;100270.00;;;;5091881;28;20047;-80
2022/03/07 01:21:22;;;;;;;0.00;0.00;;;;;21.20;100266.00;;;;5107957;28;20040;-80
2022/03/07 01:23:52;;;;;;;0.00;0.00;;;;;21.20;100251.00;;;;5108183;28;20047;-80
2022/03/07 01:26:22;;;;;;;0.00;0.00;;;;;21.20;100233.00;;;;5108292;28;20097;-80
2022/03/07 01:28:51;;;;;;;0.00;0.00;;;;;21.20;100242.00;;;;5107885;28;20043;-79
2022/03/07 01:31:24;;;;;;;0.00;0.00;;;;;21.20;100249.00;;;;5108748;28;20434;-81
2022/03/07 01:33:54;;;;;;;0.00;0.00;;;;;21.20;100209.00;;;;5109878;28;20092;-81
2022/03/07 01:36:24;;;;;;;0.00;0.00;;;;;21.20;100220.00;;;;5107926;28;20066;-81
2022/03/07 01:38:53;;;;;;;0.00;0.00;;;;;21.20;100196.00;;;;5108446;28;20597;-81
2022/03/07 01:41:25;;;;;;;0.00;0.00;;;;;21.20;100183.00;;;;5091680;28;20065;-80
2022/03/07 01:43:55;;;;;;;0.00;0.00;;;;;21.20;100194.00;;;;5091391;28;20050;-80
2022/03/07 01:46:28;;;;;;;0.00;0.00;;;;;21.10;100182.00;;;;5107517;28;20047;-80
2022/03/07 01:48:58;;;;;;;0.00;0.00;;;;;21.10;100141.00;;;;5090285;28;20044;-81
2022/03/07 01:51:28;;;;;;;0.00;0.00;;;;;21.20;100148.00;;;;5093625;28;20130;-80
2022/03/07 01:53:58;;;;;;;0.00;0.00;;;;;21.20;100148.00;;;;5108556;28;20530;-80
2022/03/07 01:56:30;;;;;;;0.00;0.00;;;;;21.20;100123.00;;;;5091870;28;20498;-79
2022/03/07 01:58:59;;;;;;;0.00;0.00;;;;;21.20;100120.00;;;;5103707;28;20093;-80
2022/03/07 02:01:31;;;;;;;0.00;0.00;;;;;21.10;100123.00;;;;5087542;28;20043;-80
2022/03/07 02:04:01;;;;;;;0.00;0.00;;;;;21.10;100110.00;;;;5106539;28;20056;-80
2022/03/07 02:06:33;;;;;;;0.00;0.00;;;;;21.20;100080.00;;;;5091554;28;20055;-80
2022/03/07 02:09:06;;;;;;;0.00;0.00;;;;;21.20;100088.00;;;;5091398;28;20067;-80
2022/03/07 02:11:40;;;;;;;0.00;0.00;;;;;21.20;100046.00;;;;5091606;28;20055;-81
2022/03/07 02:14:22;;;;;;;0.00;0.00;;;;;21.10;100070.00;;;;5107638;28;20108;-80
2022/03/07 02:16:57;;;;;;;0.00;0.00;;;;;21.10;100053.00;;;;5108275;28;20473;-80
2022/03/07 02:19:27;;;;;;;0.00;0.00;;;;;21.10;100049.00;;;;5090845;28;20079;-80
2022/03/07 02:22:01;;;;;;;0.00;0.00;;;;;21.10;100036.00;;;;5091308;28;20054;-80
2022/03/07 02:24:34;;;;;;;0.00;0.00;;;;;21.30;100031.00;;;;5107950;28;20568;-79
2022/03/07 02:27:10;;;;;;;0.00;0.00;;;;;21.20;100027.00;;;;5108329;28;20579;-80
2022/03/07 02:29:41;;;;;;;0.00;0.00;;;;;21.20;100014.00;;;;5108523;28;20086;-80
2022/03/07 02:32:18;;;;;;;0.00;0.00;;;;;21.10;100034.00;;;;5091958;28;20516;-80
2022/03/07 02:34:49;;;;;;;0.00;0.00;;;;;21.10;100045.00;;;;5091718;28;20043;-80
2022/03/07 02:49:37;;;;;;;0.00;0.00;;;;;21.10;100055.00;;;;5124532;27;20996;-79
2022/03/07 02:52:08;;;;;;;0.00;0.00;;;;;21.10;100065.00;;;;5125123;27;20039;-80
2022/03/07 02:54:38;;;;;;;0.00;0.00;;;;;21.10;100077.00;;;;5124749;27;20100;-80
2022/03/07 02:57:08;;;;;;;0.00;0.00;;;;;21.10;100090.00;;;;5123860;27;20047;-81
2022/03/07 02:59:37;;;;;;;0.00;0.00;;;;;21.10;100117.00;;;;5124968;27;20505;-80
2022/03/07 03:02:06;;;;;;;0.00;0.00;;;;;21.20;100127.00;;;;5124510;27;20043;-80
2022/03/07 03:04:36;;;;;;;0.00;0.00;;;;;21.30;100112.00;;;;5124465;27;20048;-81
2022/03/07 03:07:06;;;;;;;0.00;0.00;;;;;21.30;100076.00;;;;5122515;28;20146;-81
2022/03/07 03:09:35;;;;;;;0.00;0.00;;;;;21.30;100060.00;;;;5124185;27;20422;-80
2022/03/07 03:12:05;;;;;;;0.00;0.00;;;;;21.20;100033.00;;;;5124839;27;20505;-80
2022/03/07 03:14:35;;;;;;;0.00;0.00;;;;;21.10;100049.00;;;;5124395;27;20039;-80
2022/03/07 03:17:04;;;;;;;0.00;0.00;;;;;21.10;100063.00;;;;5123954;27;20553;-80
2022/03/07 03:19:34;;;;;;;0.00;0.00;;;;;21.10;100063.00;;;;5124656;27;20039;-80
2022/03/07 03:22:04;;;;;;;0.00;0.00;;;;;21.00;100058.00;;;;5123612;27;20055;-80
2022/03/07 03:24:33;;;;;;;0.00;0.00;;;;;21.00;100053.00;;;;5124110;27;20048;-80
2022/03/07 03:27:03;;;;;;;0.00;0.00;;;;;21.00;100038.00;;;;5124050;27;20046;-80
2022/03/07 03:29:32;;;;;;;0.00;0.00;;;;;20.90;100036.00;;;;5124428;27;20452;-80
2022/03/07 03:32:02;;;;;;;0.00;0.00;;;;;20.90;100024.00;;;;5122508;28;20062;-80
2022/03/07 03:34:32;;;;;;;0.00;0.00;;;;;20.90;100021.00;;;;5123828;27;20592;-80
2022/03/07 03:37:07;;;;;;;0.00;0.00;;;;;20.90;99998.00;;;;5123757;28;20058;-80
2022/03/07 03:39:36;;;;;;;0.00;0.00;;;;;20.90;100005.00;;;;5103671;28;20506;-80
2022/03/07 03:42:06;;;;;;;0.00;0.00;;;;;20.90;100005.00;;;;5103071;28;20039;-80
2022/03/07 03:44:35;;;;;;;0.00;0.00;;;;;20.90;100004.00;;;;5103953;28;20569;-80
2022/03/07 03:47:05;;;;;;;0.00;0.00;;;;;20.90;100014.00;;;;5102863;28;20048;-80
2022/03/07 03:49:35;;;;;;;0.00;0.00;;;;;20.90;99998.00;;;;5094885;28;20047;-80
2022/03/07 03:52:05;;;;;;;0.00;0.00;;;;;20.90;99993.00;;;;5089670;28;20507;-79
2022/03/07 03:54:34;;;;;;;0.00;0.00;;;;;20.90;99987.00;;;;5089674;28;20048;-80
2022/03/07 03:57:04;;;;;;;0.00;0.00;;;;;20.80;99971.00;;;;5089865;28;20044;-80
2022/03/07 03:59:34;;;;;;;0.00;0.00;;;;;20.80;99970.00;;;;5089096;28;20395;-80
2022/03/07 04:02:05;;;;;;;0.00;0.00;;;;;20.80;99974.00;;;;5089526;28;20051;-80
2022/03/07 04:04:35;;;;;;;0.00;0.00;;;;;20.80;99974.00;;;;5089374;28;20115;-79
2022/03/07 04:07:07;;;;;;;0.00;0.00;;;;;20.70;99972.00;;;;5089022;28;20044;-79
2022/03/07 04:09:37;;;;;;;0.00;0.00;;;;;20.80;99972.00;;;;5089504;28;20089;-80
2022/03/07 04:12:08;;;;;;;0.00;0.00;;;;;20.70;99970.00;;;;5089261;28;20044;-79
2022/03/07 04:14:37;;;;;;;0.00;0.00;;;;;20.70;99950.00;;;;5089510;28;20042;-79
2022/03/07 04:17:07;;;;;;;0.00;0.00;;;;;20.70;99956.00;;;;5088709;28;20051;-79
2022/03/07 04:19:37;;;;;;;0.00;0.00;;;;;20.80;99956.00;;;;5089402;28;20048;-79
2022/03/07 04:22:06;;;;;;;0.00;0.00;;;;;20.80;99947.00;;;;5088831;28;20494;-80
2022/03/07 04:24:36;;;;;;;0.00;0.00;;;;;20.80;99947.00;;;;5088808;28;20051;-80
2022/03/07 04:27:06;;;;;;;0.00;0.00;;;;;20.80;99955.00;;;;5089440;28;20040;-80
2022/03/07 04:29:35;;;;;;;0.00;0.00;;;;;20.80;99949.00;;;;5089138;28;20040;-80
2022/03/07 04:32:06;;;;;;;0.00;0.00;;;;;20.80;99933.00;;;;5087353;28;20044;-80
2022/03/07 04:34:35;;;;;;;0.00;0.00;;;;;20.80;99934.00;;;;5088630;28;20106;-80
2022/03/07 04:37:05;;;;;;;0.00;0.00;;;;;20.90;99923.00;;;;5088442;28;20044;-80
2022/03/07 04:39:34;;;;;;;0.00;0.00;;;;;21.00;99908.00;;;;5088247;28;20058;-80
2022/03/07 04:42:04;;;;;;;0.00;0.00;;;;;20.90;99924.00;;;;5088364;28;20050;-80
2022/03/07 04:44:34;;;;;;;0.00;0.00;;;;;20.90;99903.00;;;;5086939;28;20422;-80
2022/03/07 04:47:04;;;;;;;0.00;0.00;;;;;20.90;99903.00;;;;5088562;28;20043;-80
2022/03/07 04:49:35;;;;;;;0.00;0.00;;;;;21.00;99900.00;;;;5088428;28;20048;-80
2022/03/07 04:52:05;;;;;;;0.00;0.00;;;;;21.00;99904.00;;;;5088898;28;20035;-80
2022/03/07 04:54:35;;;;;;;0.00;0.00;;;;;21.00;99902.00;;;;5088618;28;20036;-80
2022/03/07 04:57:05;;;;;;;0.00;0.00;;;;;21.00;99895.00;;;;5088427;28;20048;-80
2022/03/07 04:59:34;;;;;;;0.00;0.00;;;;;21.00;99917.00;;;;5087632;28;20055;-80
2022/03/07 05:02:04;;;;;;;0.00;0.00;;;;;20.90;99907.00;;;;5086753;28;20048;-80
2022/03/07 05:04:33;;;;;;;0.00;0.00;;;;;21.00;99915.00;;;;5088549;28;20597;-81
2022/03/07 05:07:03;;;;;;;0.00;0.00;;;;;21.00;99917.00;;;;5088185;28;20040;-80
2022/03/07 05:09:32;;;;;;;0.00;0.00;;;;;20.90;99910.00;;;;5087994;28;20090;-81
2022/03/07 05:12:02;;;;;;;0.00;0.00;;;;;21.00;99917.00;;;;5087380;28;20572;-80
2022/03/07 05:14:31;;;;;;;0.00;0.00;;;;;21.00;99908.00;;;;5087578;28;20506;-80
2022/03/07 05:17:00;;;;;;;0.00;0.00;;;;;21.00;99927.00;;;;5087799;28;20040;-80
2022/03/07 05:19:30;;;;;;;0.00;0.00;;;;;20.90;99922.00;;;;5087879;28;20056;-80
2022/03/07 05:21:59;;;;;;;0.00;0.00;;;;;20.90;99933.00;;;;5087061;28;20055;-80
2022/03/07 05:24:29;;;;;;;0.00;0.00;;;;;20.90;99916.00;;;;5087756;28;20047;-80
2022/03/07 05:26:58;;;;;;;0.00;0.00;;;;;21.00;99926.00;;;;5087318;28;20048;-80
2022/03/07 05:29:27;;;;;;;0.00;0.00;;;;;21.00;99916.00;;;;5087942;28;20617;-80
2022/03/07 05:31:57;;;;;;;0.00;0.00;;;;;21.00;99914.00;;;;5087338;28;20040;-81
2022/03/07 05:34:26;;;;;;;0.00;0.00;;;;;21.00;99913.00;;;;5086150;28;20048;-81
2022/03/07 05:36:55;;;;;;;0.00;0.00;;;;;20.90;99914.00;;;;5087875;28;20047;-80
2022/03/07 05:39:25;;;;;;;0.00;0.00;;;;;20.90;99908.00;;;;5086968;28;20052;-81
2022/03/07 05:41:54;;;;;;;0.00;0.00;;;;;20.90;99901.00;;;;5087524;28;20396;-81
2022/03/07 05:44:23;;;;;;;0.00;0.00;;;;;20.90;99903.00;;;;5087078;28;20036;-80
2022/03/07 05:46:53;;;;;;;0.00;0.00;;;;;20.90;99901.00;;;;5087370;28;20520;-81
2022/03/07 05:49:23;;;;;;;0.00;0.00;;;;;21.00;99909.00;;;;5087678;28;20530;-81
2022/03/07 05:51:52;;;;;;;0.00;0.00;;;;;20.90;99895.00;;;;5087371;28;20036;-81
2022/03/07 05:54:21;;;;;;;0.00;0.00;;;;;20.90;99902.00;;;;5087228;28;20044;-80
2022/03/07 05:56:51;;;;;;;0.00;0.00;;;;;20.90;99910.00;;;;5087129;28;20046;-81
2022/03/07 05:59:20;;;;;;;0.00;0.00;;;;;20.90;99902.00;;;;5086967;28;20044;-81
2022/03/07 06:01:50;;;;;;;0.00;0.00;;;;;20.90;99904.00;;;;5087009;28;20046;-81
2022/03/07 06:04:20;;;;;;;0.00;0.00;;;;;20.80;99897.00;;;;5086925;28;20040;-81
2022/03/07 06:06:49;;;;;;;0.00;0.00;;;;;20.90;99909.00;;;;5086547;28;20539;-80
2022/03/07 06:09:19;;;;;;;0.00;0.00;;;;;20.80;99887.00;;;;5086001;28;20044;-80
2022/03/07 06:11:48;;;;;;;0.00;0.00;;;;;20.80;99896.00;;;;5087602;28;20055;-80
2022/03/07 06:14:18;;;;;;;0.00;0.00;;;;;20.90;99905.00;;;;5087264;28;20044;-81
2022/03/07 06:16:47;;;;;;;0.00;0.00;;;;;20.80;99894.00;;;;5086647;28;20395;-81
2022/03/07 06:19:17;;;;;;;0.00;0.00;;;;;20.80;99898.00;;;;5086354;28;20052;-80
2022/03/07 06:21:46;;;;;;;0.00;0.00;;;;;20.80;99894.00;;;;5086529;28;20044;-80
2022/03/07 06:24:16;;;;;;;0.00;0.00;;;;;20.80;99895.00;;;;5086874;28;20048;-80
2022/03/07 06:26:46;;;;;;;0.00;0.00;;;;;20.80;99890.00;;;;5087030;28;20138;-80
2022/03/07 06:29:15;;;;;;;0.00;0.00;;;;;20.80;99882.00;;;;5086963;28;20035;-81
2022/03/07 06:31:44;;;;;;;0.00;0.00;;;;;20.80;99876.00;;;;5086861;28;20050;-81
2022/03/07 06:34:14;;;;;;;0.00;0.00;;;;;20.80;99876.00;;;;5086611;28;20120;-80
2022/03/07 06:36:43;;;;;;;0.00;0.00;;;;;20.80;99871.00;;;;5086875;28;20052;-80
2022/03/07 06:39:13;;;;;;;0.00;0.00;;;;;20.90;99869.00;;;;5086721;28;20395;-80
2022/03/07 06:41:42;;;;;;;0.00;0.00;;;;;20.90;99876.00;;;;5086853;28;20044;-80
2022/03/07 06:44:11;;;;;;;0.00;0.00;;;;;20.90;99887.00;;;;5086659;28;20051;-80
2022/03/07 06:46:41;;;;;;;0.00;0.00;;;;;20.90;99869.00;;;;5087075;28;20051;-79
2022/03/07 06:49:10;;;;;;;0.00;0.00;;;;;20.90;99869.00;;;;5086688;28;20063;-80
2022/03/07 06:51:40;;;;;;;0.00;0.00;;;;;21.00;99879.00;;;;5086427;28;20040;-80
2022/03/07 06:54:09;;;;;;;0.00;0.00;;;;;21.00;99876.00;;;;5087112;28;20048;-80
2022/03/07 06:56:39;;;;;;;0.00;0.00;;;;;20.90;99867.00;;;;5086183;28;20043;-80
2022/03/07 06:59:08;;;;;;;0.00;0.00;;;;;20.90;99873.00;;;;5086108;28;20148;-80
2022/03/07 07:01:37;;;;;;;0.00;0.00;;;;;20.80;99878.00;;;;5086712;28;20056;-80
2022/03/07 07:04:07;;;;;;;0.00;0.00;;;;;20.90;99863.00;;;;5086494;28;20498;-80
2022/03/07 07:06:37;;;;;;;0.00;0.00;;;;;20.90;99880.00;;;;5086227;28;20044;-80
2022/03/07 07:09:06;;;;;;;0.00;0.00;;;;;20.90;99872.00;;;;5086288;28;20052;-80
2022/03/07 07:11:36;;;;;;;0.00;0.00;;;;;20.80;99875.00;;;;5087380;28;20040;-80
2022/03/07 07:14:05;;;;;;;0.00;0.00;;;;;20.80;99886.00;;;;5086589;28;20055;-80
2022/03/07 07:16:35;;;;;;;0.00;0.00;;;;;20.80;99873.00;;;;5085528;28;20418;-80
2022/03/07 07:19:04;;;;;;;0.00;0.00;;;;;20.80;99879.00;;;;5086547;28;20044;-80
2022/03/07 07:21:34;;;;;;;0.00;0.00;;;;;20.80;99868.00;;;;5086274;28;20101;-80
2022/03/07 07:24:04;;;;;;;0.00;0.00;;;;;20.70;99865.00;;;;5087084;28;20508;-80
2022/03/07 07:26:33;;;;;;;0.00;0.00;;;;;20.80;99856.00;;;;5090449;28;20098;-80
2022/03/07 07:29:03;;;;;;;0.00;0.00;;;;;20.70;99872.00;;;;5090034;28;20048;-80
2022/03/07 07:31:34;;;;;;;0.00;0.00;;;;;20.70;99865.00;;;;5089782;28;20035;-80
2022/03/07 07:34:05;;;;;;;0.00;0.00;;;;;20.70;99862.00;;;;5089669;28;20520;-80
2022/03/07 07:36:35;;;;;;;0.00;0.00;;;;;20.70;99865.00;;;;5089605;28;20032;-81
2022/03/07 07:39:04;;;;;;;0.00;0.00;;;;;20.70;99871.00;;;;5090079;28;20067;-80
2022/03/07 07:41:34;;;;;;;0.00;0.00;;;;;20.60;99869.00;;;;5090272;28;20120;-81
2022/03/07 07:44:03;;;;;;;0.00;0.00;;;;;20.70;99872.00;;;;5089468;28;20055;-79
2022/03/07 07:46:33;;;;;;;0.00;0.00;;;;;20.60;99844.00;;;;5088145;28;20052;-79
2022/03/07 07:49:03;;;;;;;0.00;0.00;;;;;20.60;99865.00;;;;5089491;28;20052;-80
2022/03/07 07:51:32;;;;;;;0.00;0.00;;;;;20.60;99848.00;;;;5089984;28;20044;-80
2022/03/07 07:54:02;;;;;;;0.00;0.00;;;;;20.60;99867.00;;;;5089454;28;20445;-80
2022/03/07 07:56:31;;;;;;;0.00;0.00;;;;;20.60;99851.00;;;;5089476;28;20040;-80
2022/03/07 07:59:01;;;;;;;0.00;0.00;;;;;20.60;99852.00;;;;5089482;28;20047;-79
2022/03/07 08:01:30;;;;;;;0.00;0.00;;;;;20.60;99864.00;;;;5089551;28;20138;-80
2022/03/07 08:04:00;;;;;;;0.00;0.00;;;;;20.60;99869.00;;;;5090106;28;20040;-80
2022/03/07 08:06:30;;;;;;;0.00;0.00;;;;;20.50;99873.00;;;;5089887;28;20052;-80
2022/03/07 08:09:01;;;;;;;0.00;0.00;;;;;20.50;99855.00;;;;5088808;28;20059;-79
2022/03/07 08:11:32;;;;;;;0.00;0.00;;;;;20.50;99876.00;;;;5088581;28;20450;-80
2022/03/07 08:14:01;;;;;;;0.00;0.00;;;;;20.50;99879.00;;;;5089532;28;20505;-80
2022/03/07 08:16:30;;;;;;;0.00;0.00;;;;;20.40;99878.00;;;;5089378;28;20040;-80
2022/03/07 08:19:00;;;;;;;0.00;0.00;;;;;20.40;99881.00;;;;5089180;28;20076;-80
2022/03/07 08:21:30;;;;;;;0.00;0.00;;;;;20.40;99868.00;;;;5089111;28;20455;-80
2022/03/07 08:24:03;;;;;;;0.00;0.00;;;;;20.40;99873.00;;;;5088413;28;20123;-80
2022/03/07 08:26:33;;;;;;;0.00;0.00;;;;;20.40;99894.00;;;;5088838;28;20047;-80
2022/03/07 08:29:03;;;;;;;0.00;0.00;;;;;20.30;99896.00;;;;5088976;28;20052;-80
2022/03/07 08:31:32;;;;;;;0.00;0.00;;;;;20.30;99888.00;;;;5089560;28;20043;-79
2022/03/07 08:34:01;;;;;;;0.00;0.00;;;;;20.20;99885.00;;;;5088766;28;20506;-80
2022/03/07 08:36:32;;;;;;;0.00;0.00;;;;;20.30;99889.00;;;;5088566;28;20043;-80
2022/03/07 08:39:01;;;;;;;0.00;0.00;;;;;20.30;99884.00;;;;5089075;28;20735;-79
2022/03/07 08:41:30;;;;;;;0.00;0.00;;;;;20.30;99888.00;;;;5088828;28;20047;-80
2022/03/07 08:44:00;;;;;;;0.00;0.00;;;;;20.30;99884.00;;;;5088717;28;20097;-80
2022/03/07 08:46:30;;;;;;;0.00;0.00;;;;;20.20;99887.00;;;;5088961;28;20085;-80
2022/03/07 08:49:00;;;;;;;0.00;0.00;;;;;20.20;99893.00;;;;5088164;28;20306;-79
2022/03/07 08:51:29;;;;;;;0.00;0.00;;;;;20.20;99879.00;;;;5088581;28;20513;-80
2022/03/07 08:53:58;;;;;;;0.00;0.00;;;;;20.30;99876.00;;;;5088874;28;20532;-77
2022/03/07 08:56:28;;;;;;;0.00;0.00;;;;;20.30;99896.00;;;;5088944;28;20044;-79
2022/03/07 08:58:57;;;;;;;0.00;0.00;;;;;20.30;99895.00;;;;5088245;28;20055;-81
2022/03/07 09:01:27;;;;;;;0.00;0.00;;;;;20.20;99895.00;;;;5087441;28;20051;-80
2022/03/07 09:03:57;;;;;;;0.00;0.00;;;;;20.20;99905.00;;;;5088266;28;20040;-81
2022/03/07 09:06:26;;;;;;;0.00;0.00;;;;;20.20;99918.00;;;;5088151;28;20422;-80
2022/03/07 09:08:56;;;;;;;0.00;0.00;;;;;20.20;99904.00;;;;5088297;28;20537;-82
2022/03/07 09:11:46;;;;;;;0.00;0.00;;;;;20.20;99918.00;;;;5088111;28;20077;-83
2022/03/07 09:14:16;;;;;;;0.00;0.00;;;;;20.20;99913.00;;;;5087767;28;20058;-83
2022/03/07 09:16:46;;;;;;;0.00;0.00;;;;;20.10;99911.00;;;;5088017;28;20048;-80
2022/03/07 09:19:16;;;;;;;0.00;0.00;;;;;20.10;99920.00;;;;5087876;28;20044;-83
2022/03/07 09:21:46;;;;;;;0.00;0.00;;;;;20.10;99915.00;;;;5087863;28;20040;-82
2022/03/07 09:24:15;;;;;;;0.00;0.00;;;;;20.20;99909.00;;;;5088158;28;20493;-79
2022/03/07 09:26:45;;;;;;;0.00;0.00;;;;;20.20;99914.00;;;;5088284;28;20556;-82
2022/03/07 09:29:15;;;;;;;0.00;0.00;;;;;20.20;99936.00;;;;5087579;28;20044;-81
2022/03/07 09:31:45;;;;;;;0.00;0.00;;;;;20.20;99931.00;;;;5086346;28;20044;-81
2022/03/07 09:34:14;;;;;;;0.00;0.00;;;;;20.30;99921.00;;;;5087600;28;20050;-81
2022/03/07 09:36:44;;;;;;;0.00;0.00;;;;;20.30;99911.00;;;;5087648;28;20050;-81
2022/03/07 09:39:13;;;;;;;0.00;0.00;;;;;20.30;99916.00;;;;5086706;28;20051;-81
2022/03/07 09:41:43;;;;;;;0.00;0.00;;;;;20.30;99919.00;;;;5087008;28;20040;-80
2022/03/07 09:44:12;;;;;;;0.00;0.00;;;;;20.40;99919.00;;;;5087432;28;20047;-80
2022/03/07 09:46:43;;;;;;;0.00;0.00;;;;;20.40;99936.00;;;;5087444;28;20052;-82
2022/03/07 09:49:12;;;;;;;0.00;0.00;;;;;20.50;99933.00;;;;5086519;28;20083;-80
2022/03/07 09:51:41;;;;;;;0.00;0.00;;;;;20.50;99941.00;;;;5086362;28;20051;-83
2022/03/07 09:54:11;;;;;;;0.00;0.00;;;;;20.60;99936.00;;;;5086632;28;20063;-83
2022/03/07 09:56:40;;;;;;;0.00;0.00;;;;;20.70;99944.00;;;;5085628;28;20052;-79
2022/03/07 09:59:10;;;;;;;0.00;0.00;;;;;20.80;99956.00;;;;5087402;28;20051;-81
2022/03/07 10:01:39;;;;;;;0.00;0.00;;;;;20.90;99968.00;;;;5087204;28;20048;-81
2022/03/07 10:04:13;;;;;;;0.00;0.00;;;;;21.00;99956.00;;;;5086781;28;20040;-79
2022/03/07 10:06:50;;;;;;;0.00;0.00;;;;;21.10;99946.00;;;;5085937;28;20047;-80
2022/03/07 10:09:23;;;;;;;0.00;0.00;;;;;21.20;99958.00;;;;5086940;28;20044;-80
2022/03/07 10:11:56;;;;;;;0.00;0.00;;;;;21.30;99968.00;;;;5087103;28;20111;-81
2022/03/07 10:14:45;;;;;;;0.00;0.00;;;;;21.50;99962.00;;;;5086737;28;20039;-80
2022/03/07 10:17:21;;;;;;;0.00;0.00;;;;;21.60;99960.00;;;;5087150;28;20044;-80
2022/03/07 10:19:52;;;;;;;0.00;0.00;;;;;21.70;99958.00;;;;5087548;28;20067;-78
2022/03/07 10:22:25;;;;;;;0.00;0.00;;;;;21.90;99968.00;;;;5087089;28;20098;-79
2022/03/07 10:25:07;;;;;;;0.00;0.00;;;;;22.50;99953.00;;;;5087039;28;20053;-80
2022/03/07 10:27:45;;;;;;;0.00;0.00;;;;;22.90;99956.00;;;;5085345;28;20039;-79
2022/03/07 10:30:19;;;;;;;0.00;0.00;;;;;23.20;99943.00;;;;5084606;28;20044;-79
2022/03/07 10:33:10;;;;;;;0.00;0.00;;;;;26.10;99866.00;;;;5085614;28;20422;-79
2022/03/07 10:35:43;;;;;;;0.00;0.00;;;;;26.10;99897.00;;;;5086885;28;20130;-80
2022/03/07 10:38:18;;;;;;;0.00;0.00;;;;;26.70;99892.00;;;;5086622;28;20127;-83
2022/03/07 10:40:54;;;;;;;0.00;0.00;;;;;24.70;99918.00;;;;5086616;28;20363;-79
2022/03/07 10:43:24;;;;;;;0.00;0.00;;;;;25.10;99898.00;;;;5084831;28;20071;-82
2022/03/07 10:46:01;;;;;;;0.00;0.00;;;;;27.60;99844.00;;;;5086498;28;20123;-81
2022/03/07 10:48:41;;;;;;;0.00;0.00;;;;;27.50;99893.00;;;;5086384;28;20083;-80
2022/03/07 10:51:20;;;;;;;0.00;0.00;;;;;26.20;99926.00;;;;5086831;28;20514;-81
2022/03/07 10:53:50;;;;;;;0.00;0.00;;;;;26.10;99901.00;;;;5086276;28;20050;-80
2022/03/07 10:56:23;;;;;;;0.00;0.00;;;;;28.10;99854.00;;;;5085910;28;20036;-79
2022/03/07 10:58:55;;;;;;;0.00;0.00;;;;;30.80;99767.00;;;;5086776;28;20051;-80
2022/03/07 11:01:34;;;;;;;0.00;0.00;;;;;33.70;99762.00;;;;5072915;28;20052;-80
2022/03/07 11:04:04;;;;;;;0.00;0.00;;;;;35.10;99773.00;;;;5089079;28;20075;-80
2022/03/07 11:06:34;;;;;;;0.00;0.00;;;;;35.50;99781.00;;;;5090660;28;20044;-80
2022/03/07 11:09:03;;;;;;;0.00;0.00;;;;;35.70;99783.00;;;;5090148;28;20115;-81
2022/03/07 11:11:33;;;;;;;0.00;0.00;;;;;35.70;99797.00;;;;5072486;28;20052;-81
2022/03/07 11:14:03;;;;;;;0.00;0.00;;;;;35.90;99808.00;;;;5090202;28;20506;-81
2022/03/07 11:16:33;;;;;;;0.00;0.00;;;;;35.70;99803.00;;;;5090341;28;20294;-81
2022/03/07 11:19:03;;;;;;;;;;;;;35.90;99826.00;;;;5090724;28;20079;-81
2022/03/07 11:21:35;;;;;;;0.00;0.00;;;;;36.20;99823.00;;;;5090623;28;19999;-81
2022/03/07 11:24:05;;;;;;;0.00;0.00;;;;;36.30;99841.00;;;;5090085;28;20106;-82
2022/03/07 11:26:35;;;;;;;0.00;0.00;;;;;36.40;99843.00;;;;5090415;28;20055;-81
2022/03/07 11:29:04;;;;;;;0.00;0.00;;;;;36.70;99873.00;;;;5090009;28;20449;-80
2022/03/07 11:31:34;;;;;;;0.00;0.00;;;;;34.70;99900.00;;;;5089536;28;20948;-80
2022/03/07 11:34:07;;;;;;;0.00;0.00;;;;;32.50;99907.00;;;;5089999;28;20044;-79
2022/03/07 11:36:41;;;;;;;0.00;0.00;;;;;33.80;99856.00;;;;5090449;28;20051;-80
2022/03/07 11:39:12;;;;;;;0.00;0.00;;;;;33.10;99948.00;;;;5089673;28;20074;-81
2022/03/07 11:41:42;;;;;;;0.00;0.00;;;;;29.90;99930.00;;;;5090068;28;20044;-81
2022/03/07 11:44:14;;;;;;;0.00;0.00;;;;;29.50;99951.00;;;;5088894;28;20080;-81
2022/03/07 11:46:51;;;;;;;0.03;0.03;;;;;29.30;99953.00;;;;5090041;28;20036;-80
2022/03/07 11:49:28;;;;;;;0.03;0.03;;;;;29.10;99953.00;;;;5089171;28;20051;-80
2022/03/07 11:52:04;;;;;;;0.00;0.00;;;;;31.00;99894.00;;;;5089690;28;20051;-80
2022/03/07 11:54:35;;;;;;;0.00;0.00;;;;;31.70;99948.00;;;;5088733;28;20499;-80
2022/03/07 11:57:10;;;;;;;0.00;0.00;;;;;32.80;99842.00;;;;5089578;28;20044;-80
2022/03/07 11:59:40;;;;;;;0.35;0.20;;;;;35.80;99831.00;;;;5089198;28;20051;-79
2022/03/07 12:02:10;;;;;;;0.00;0.00;;;;;36.50;99818.00;;;;5088839;28;20414;-79
2022/03/07 12:04:45;;;;;;;0.00;0.00;;;;;37.40;99844.00;;;;5089447;28;20040;-80
2022/03/07 12:07:26;;;;;;;0.00;0.00;;;;;37.90;99833.00;;;;5089586;28;20036;-79
2022/03/07 12:10:05;;;;;;;;;;;;;38.30;99847.00;;;;5089339;28;20044;-80
2022/03/07 12:12:35;;;;;;;0.00;0.00;;;;;38.30;99842.00;;;;5089055;28;19920;-82
2022/03/07 12:15:09;;;;;;;0.00;0.00;;;;;37.60;99842.00;;;;5089032;28;20040;-80
2022/03/07 12:17:39;;;;;;;0.00;0.00;;;;;37.60;99842.00;;;;5088331;28;20169;-81
2022/03/07 12:20:09;;;;;;;0.00;0.00;;;;;37.80;99840.00;;;;5088952;28;20036;-81
2022/03/07 12:22:40;;;;;;;0.00;0.00;;;;;37.50;99836.00;;;;5089038;28;20503;-81
2022/03/07 12:25:10;;;;;;;0.10;0.10;;;;;37.00;99838.00;;;;5088473;28;20050;-81
2022/03/07 12:27:41;;;;;;;0.00;0.00;;;;;37.10;99846.00;;;;5087386;28;20484;-80
2022/03/07 12:30:12;;;;;;;0.00;0.00;;;;;37.00;99852.00;;;;5088381;28;20451;-80
2022/03/07 12:32:42;;;;;;;0.00;0.00;;;;;36.50;99848.00;;;;5088810;28;20047;-80
2022/03/07 12:35:12;;;;;;;0.00;0.00;;;;;36.30;99881.00;;;;5088569;28;20047;-80
2022/03/07 12:37:41;;;;;;;0.17;0.17;;;;;36.10;99886.00;;;;5089067;28;20044;-79
2022/03/07 12:40:11;;;;;;;0.00;0.00;;;;;35.80;99888.00;;;;5088079;28;20507;-80
2022/03/07 12:42:46;;;;;;;0.00;0.00;;;;;35.60;99897.00;;;;5088780;28;20105;-80
2022/03/07 12:45:19;;;;;;;0.00;0.00;;;;;35.30;99899.00;;;;5088195;28;20044;-79